Time;durP1;ratioP1;P1;durP2;ratioP2;P2;SDS_P1;SDS_P2;PMS_P1;PMS_P2;Temp;Humidity;BMP_temperature;BMP_pressure;BME280_temperature;BME280_humidity;BME280_pressure;Samples;Min_cycle;Max_cycle;Signal;HPM_P1;HPM_P2
2023/05/17 00:00:19;;;;;;;18.67;7.75;;;;;;;;;;2526856;23;20026;-73
2023/05/17 00:01:40;;;;;;;17.40;8.30;;;;;;;;;;2532394;23;20022;-73
2023/05/17 00:03:00;;;;;;;13.38;8.68;;;;;;;;;;2520571;23;20416;-73
2023/05/17 00:04:21;;;;;;;19.35;9.57;;;;;;;;;;2527454;23;20017;-72
2023/05/17 00:05:44;;;;;;;18.27;8.60;;;;;;;;;;2522246;23;20014;-73
2023/05/17 00:07:06;;;;;;;15.20;8.00;;;;;;;;;;2529512;23;20010;-73
2023/05/17 00:08:27;;;;;;;14.77;8.43;;;;;;;;;;2522826;23;20010;-72
2023/05/17 00:09:48;;;;;;;20.38;9.10;;;;;;;;;;2528041;23;20014;-73
2023/05/17 00:11:08;;;;;;;23.67;9.02;;;;;;;;;;2530467;23;20010;-72
2023/05/17 00:12:29;;;;;;;17.75;8.30;;;;;;;;;;2529792;23;20021;-73
2023/05/17 00:13:50;;;;;;;12.30;8.40;;;;;;;;;;2531616;23;20081;-73
2023/05/17 00:15:13;;;;;;;23.40;9.38;;;;;;;;;;2517332;23;20021;-73
2023/05/17 00:16:34;;;;;;;19.20;7.60;;;;;;;;;;2528989;23;20344;-72
2023/05/17 00:17:56;;;;;;;15.13;8.50;;;;;;;;;;2532426;23;20017;-73
2023/05/17 00:19:17;;;;;;;14.32;8.60;;;;;;;;;;2530287;23;20017;-73
2023/05/17 00:20:37;;;;;;;22.23;9.05;;;;;;;;;;2529799;23;20449;-72
2023/05/17 00:21:58;;;;;;;18.13;8.45;;;;;;;;;;2529400;23;20017;-73
2023/05/17 00:23:19;;;;;;;17.30;8.43;;;;;;;;;;2531810;23;20017;-73
2023/05/17 00:24:40;;;;;;;19.67;9.07;;;;;;;;;;2530805;23;20017;-73
2023/05/17 00:26:01;;;;;;;32.15;10.52;;;;;;;;;;2530213;23;20488;-72
2023/05/17 00:27:22;;;;;;;16.85;8.90;;;;;;;;;;2530731;23;20010;-72
2023/05/17 00:28:43;;;;;;;20.08;9.02;;;;;;;;;;2530835;23;20017;-73
2023/05/17 00:30:04;;;;;;;24.58;9.63;;;;;;;;;;2529512;23;20021;-72
2023/05/17 00:31:25;;;;;;;25.33;9.48;;;;;;;;;;2530449;23;20009;-72
2023/05/17 00:32:49;;;;;;;18.05;8.98;;;;;;;;;;2532074;23;20475;-72
2023/05/17 00:34:10;;;;;;;24.73;9.32;;;;;;;;;;2531213;23;20013;-72
2023/05/17 00:35:31;;;;;;;20.55;9.15;;;;;;;;;;2532574;23;20435;-72
2023/05/17 00:36:52;;;;;;;28.17;10.30;;;;;;;;;;2529304;23;20017;-73
2023/05/17 00:38:12;;;;;;;21.48;9.73;;;;;;;;;;2517131;23;20022;-73
2023/05/17 00:39:33;;;;;;;27.67;10.35;;;;;;;;;;2526654;23;20021;-73
2023/05/17 00:40:54;;;;;;;26.00;9.55;;;;;;;;;;2532450;23;20348;-72
2023/05/17 00:42:16;;;;;;;32.10;11.07;;;;;;;;;;2518407;23;20018;-72
2023/05/17 00:43:38;;;;;;;21.50;9.63;;;;;;;;;;2527369;23;20432;-73
2023/05/17 00:45:00;;;;;;;23.77;9.55;;;;;;;;;;2531647;23;20013;-73
2023/05/17 00:46:21;;;;;;;31.00;10.93;;;;;;;;;;2531370;23;20010;-73
2023/05/17 00:47:42;;;;;;;24.73;10.25;;;;;;;;;;2529757;23;20010;-71
2023/05/17 00:49:02;;;;;;;22.95;9.55;;;;;;;;;;2532658;23;20002;-70
2023/05/17 00:50:25;;;;;;;21.08;9.35;;;;;;;;;;2531839;23;20017;-71
2023/05/17 00:51:47;;;;;;;29.75;10.10;;;;;;;;;;2531476;23;20006;-71
2023/05/17 00:53:07;;;;;;;23.23;10.32;;;;;;;;;;2531266;23;20013;-71
2023/05/17 00:54:29;;;;;;;19.67;8.18;;;;;;;;;;2517480;23;20414;-72
2023/05/17 00:55:50;;;;;;;21.10;8.77;;;;;;;;;;2528497;23;20490;-72
2023/05/17 00:57:11;;;;;;;27.30;10.63;;;;;;;;;;2530111;23;20010;-72
2023/05/17 00:58:32;;;;;;;25.25;9.90;;;;;;;;;;2517575;23;20015;-71
2023/05/17 00:59:54;;;;;;;21.30;8.50;;;;;;;;;;2521015;23;20011;-72
2023/05/17 01:01:16;;;;;;;27.25;11.23;;;;;;;;;;2525634;23;20017;-72
2023/05/17 01:02:37;;;;;;;16.73;8.63;;;;;;;;;;2529632;23;20041;-72
2023/05/17 01:03:58;;;;;;;29.70;10.82;;;;;;;;;;2527810;23;20022;-72
2023/05/17 01:05:19;;;;;;;23.53;9.03;;;;;;;;;;2533874;23;20013;-72
2023/05/17 01:06:40;;;;;;;23.02;9.85;;;;;;;;;;2528227;23;20858;-72
2023/05/17 01:08:01;;;;;;;38.25;12.95;;;;;;;;;;2526893;23;20073;-71
2023/05/17 01:09:23;;;;;;;20.20;9.90;;;;;;;;;;2528766;23;20006;-72
2023/05/17 01:10:53;;;;;;;18.55;8.57;;;;;;;;;;2519232;23;20014;-72
2023/05/17 01:12:32;;;;;;;35.88;13.50;;;;;;;;;;2504690;23;20457;-72
2023/05/17 01:14:01;;;;;;;35.03;11.98;;;;;;;;;;2516808;23;20053;-72
2023/05/17 01:15:24;;;;;;;22.92;10.13;;;;;;;;;;2517862;23;20026;-72
2023/05/17 01:16:54;;;;;;;36.88;11.68;;;;;;;;;;2517406;23;20043;-72
2023/05/17 01:18:19;;;;;;;26.23;10.77;;;;;;;;;;2518917;23;20018;-72
2023/05/17 01:19:56;;;;;;;26.25;10.13;;;;;;;;;;2518516;23;20065;-72
2023/05/17 01:21:23;;;;;;;23.25;9.82;;;;;;;;;;2530629;23;20024;-72
2023/05/17 01:22:50;;;;;;;18.45;8.65;;;;;;;;;;2530827;23;20010;-72
2023/05/17 01:24:20;;;;;;;28.48;10.60;;;;;;;;;;2531696;23;20014;-72
2023/05/17 01:25:50;;;;;;;27.15;10.75;;;;;;;;;;2530611;23;20478;-72
2023/05/17 01:27:12;;;;;;;25.23;9.73;;;;;;;;;;2532711;23;20010;-72
2023/05/17 01:28:33;;;;;;;24.25;10.77;;;;;;;;;;2531641;23;20321;-72
2023/05/17 01:29:55;;;;;;;42.80;11.07;;;;;;;;;;2517448;23;20022;-72
2023/05/17 01:31:17;;;;;;;32.58;10.77;;;;;;;;;;2524666;23;20013;-72
2023/05/17 01:32:39;;;;;;;21.85;9.98;;;;;;;;;;2518210;23;20010;-72
2023/05/17 01:34:00;;;;;;;30.73;10.82;;;;;;;;;;2526053;23;20388;-72
2023/05/17 01:35:21;;;;;;;31.30;10.32;;;;;;;;;;2530254;23;20014;-72
2023/05/17 01:36:43;;;;;;;20.75;9.52;;;;;;;;;;2530976;23;20041;-72
2023/05/17 01:38:04;;;;;;;29.85;10.48;;;;;;;;;;2519590;23;20015;-72
2023/05/17 01:39:25;;;;;;;18.10;9.23;;;;;;;;;;2527262;23;20014;-72
2023/05/17 01:41:00;;;;;;;28.73;10.30;;;;;;;;;;2519094;23;20022;-72
2023/05/17 01:42:23;;;;;;;18.88;8.82;;;;;;;;;;2529738;23;20094;-72
2023/05/17 01:43:46;;;;;;;14.63;8.90;;;;;;;;;;2530964;23;20466;-72
2023/05/17 01:45:26;;;;;;;24.98;10.50;;;;;;;;;;2533553;23;20014;-72
2023/05/17 01:46:49;;;;;;;24.02;10.30;;;;;;;;;;2531449;23;20072;-73
2023/05/17 01:48:17;;;;;;;25.13;10.10;;;;;;;;;;2532059;23;20348;-72
2023/05/17 01:49:43;;;;;;;23.40;10.23;;;;;;;;;;2532043;23;20006;-74
2023/05/17 01:51:05;;;;;;;28.63;10.35;;;;;;;;;;2528602;23;20010;-73
2023/05/17 01:52:52;;;;;;;23.98;10.32;;;;;;;;;;2530435;23;20025;-72
2023/05/17 01:54:18;;;;;;;29.48;10.90;;;;;;;;;;2520321;23;20015;-73
2023/05/17 01:55:44;;;;;;;25.80;10.27;;;;;;;;;;2530959;23;20340;-72
2023/05/17 01:57:06;;;;;;;17.42;9.38;;;;;;;;;;2531689;23;20025;-73
2023/05/17 01:58:28;;;;;;;17.88;9.25;;;;;;;;;;2531124;23;20020;-74
2023/05/17 01:59:50;;;;;;;24.20;9.90;;;;;;;;;;2532500;23;20511;-73
2023/05/17 02:01:13;;;;;;;22.80;9.50;;;;;;;;;;2520145;23;20026;-73
2023/05/17 02:02:34;;;;;;;14.73;9.20;;;;;;;;;;2519514;23;20468;-73
2023/05/17 02:03:55;;;;;;;22.83;9.73;;;;;;;;;;2518533;23;20078;-73
2023/05/17 02:05:16;;;;;;;14.15;8.05;;;;;;;;;;2520838;23;20010;-73
2023/05/17 02:06:37;;;;;;;15.90;9.10;;;;;;;;;;2518170;23;20013;-73
2023/05/17 02:07:58;;;;;;;22.20;10.50;;;;;;;;;;2508276;23;20441;-73
2023/05/17 02:09:19;;;;;;;18.13;8.90;;;;;;;;;;2517588;23;20010;-73
2023/05/17 02:10:40;;;;;;;14.50;9.23;;;;;;;;;;2520192;23;20010;-73
2023/05/17 02:12:01;;;;;;;19.33;9.77;;;;;;;;;;2507294;23;20410;-73
2023/05/17 02:13:22;;;;;;;20.80;9.73;;;;;;;;;;2516661;23;20018;-72
2023/05/17 02:14:43;;;;;;;27.42;11.07;;;;;;;;;;2504530;23;20015;-73
2023/05/17 02:16:04;;;;;;;25.88;10.73;;;;;;;;;;2513464;23;20014;-73
2023/05/17 02:17:25;;;;;;;26.33;10.20;;;;;;;;;;2518492;23;20011;-73
2023/05/17 02:18:46;;;;;;;29.63;11.85;;;;;;;;;;2519945;23;20081;-72
2023/05/17 02:20:07;;;;;;;24.73;9.98;;;;;;;;;;2518936;23;20019;-73
2023/05/17 02:21:28;;;;;;;27.23;10.30;;;;;;;;;;2518181;23;20018;-73
2023/05/17 02:22:49;;;;;;;27.27;11.18;;;;;;;;;;2508158;23;20457;-73
2023/05/17 02:24:10;;;;;;;23.05;10.13;;;;;;;;;;2514462;23;20471;-73
2023/05/17 02:25:31;;;;;;;23.25;10.80;;;;;;;;;;2507399;23;20015;-73
2023/05/17 02:26:51;;;;;;;31.10;11.20;;;;;;;;;;2515317;23;20018;-73
2023/05/17 02:28:12;;;;;;;25.27;10.68;;;;;;;;;;2518335;23;20014;-72
2023/05/17 02:29:33;;;;;;;25.85;10.52;;;;;;;;;;2518988;23;20017;-74
2023/05/17 02:30:55;;;;;;;34.95;11.23;;;;;;;;;;2527765;23;20018;-73
2023/05/17 02:32:16;;;;;;;30.25;11.70;;;;;;;;;;2529008;23;20033;-72
2023/05/17 02:33:37;;;;;;;35.40;11.93;;;;;;;;;;2529005;23;20013;-73
2023/05/17 02:34:57;;;;;;;23.08;9.38;;;;;;;;;;2529435;23;20077;-72
2023/05/17 02:36:18;;;;;;;26.77;10.40;;;;;;;;;;2530314;23;20369;-73
2023/05/17 02:37:39;;;;;;;22.75;10.70;;;;;;;;;;2530177;23;20010;-73
2023/05/17 02:39:00;;;;;;;19.92;10.55;;;;;;;;;;2530157;23;20014;-73
2023/05/17 02:40:21;;;;;;;32.10;11.43;;;;;;;;;;2520391;23;20010;-73
2023/05/17 02:41:42;;;;;;;22.15;10.23;;;;;;;;;;2518540;23;20527;-73
2023/05/17 02:43:03;;;;;;;32.83;11.95;;;;;;;;;;2527090;23;20040;-72
2023/05/17 02:44:26;;;;;;;23.05;9.75;;;;;;;;;;2530546;23;20020;-73
2023/05/17 02:45:47;;;;;;;28.98;11.15;;;;;;;;;;2530504;23;20013;-72
2023/05/17 02:47:08;;;;;;;28.42;11.68;;;;;;;;;;2529340;23;20010;-73
2023/05/17 02:48:30;;;;;;;21.35;10.90;;;;;;;;;;2519950;23;20010;-73
2023/05/17 02:49:51;;;;;;;29.33;11.75;;;;;;;;;;2527908;23;20006;-73
2023/05/17 02:51:11;;;;;;;27.45;11.05;;;;;;;;;;2525090;23;20033;-72
2023/05/17 02:52:32;;;;;;;26.25;10.10;;;;;;;;;;2530144;23;20017;-73
2023/05/17 02:53:53;;;;;;;30.10;10.57;;;;;;;;;;2517382;23;20006;-76
2023/05/17 02:55:14;;;;;;;35.97;10.93;;;;;;;;;;2514896;23;20010;-75
2023/05/17 02:56:35;;;;;;;24.42;11.63;;;;;;;;;;2526362;23;20020;-75
2023/05/17 02:57:56;;;;;;;42.97;14.13;;;;;;;;;;2527255;23;20356;-75
2023/05/17 02:59:17;;;;;;;42.70;13.60;;;;;;;;;;2526822;23;20010;-75
2023/05/17 03:00:38;;;;;;;45.53;14.48;;;;;;;;;;2520465;23;20021;-71
2023/05/17 03:02:00;;;;;;;27.98;10.63;;;;;;;;;;2517577;23;20526;-71
2023/05/17 03:03:21;;;;;;;18.75;9.80;;;;;;;;;;2519464;23;20108;-71
2023/05/17 03:04:41;;;;;;;37.92;13.70;;;;;;;;;;2515473;23;20025;-71
2023/05/17 03:06:03;;;;;;;41.13;13.13;;;;;;;;;;2515127;23;20011;-70
2023/05/17 03:07:24;;;;;;;40.92;13.30;;;;;;;;;;2514419;23;20397;-70
2023/05/17 03:08:45;;;;;;;39.15;13.38;;;;;;;;;;2503715;23;20015;-70
2023/05/17 03:10:06;;;;;;;45.50;14.80;;;;;;;;;;2510926;23;20014;-70
2023/05/17 03:11:27;;;;;;;40.08;12.50;;;;;;;;;;2513643;23;20366;-70
2023/05/17 03:12:48;;;;;;;43.80;13.85;;;;;;;;;;2512897;23;20025;-70
2023/05/17 03:14:09;;;;;;;41.97;14.15;;;;;;;;;;2514272;23;20021;-69
2023/05/17 03:15:30;;;;;;;41.10;14.30;;;;;;;;;;2501536;23;20014;-69
2023/05/17 03:16:51;;;;;;;37.42;14.23;;;;;;;;;;2510609;23;20015;-69
2023/05/17 03:18:12;;;;;;;42.92;13.55;;;;;;;;;;2514942;23;20022;-69
2023/05/17 03:19:33;;;;;;;34.63;12.60;;;;;;;;;;2503382;23;20011;-69
2023/05/17 03:20:54;;;;;;;35.20;12.80;;;;;;;;;;2517411;23;20080;-69
2023/05/17 03:22:15;;;;;;;44.47;14.57;;;;;;;;;;2512599;23;20014;-69
2023/05/17 03:23:38;;;;;;;36.50;13.98;;;;;;;;;;2513051;23;20066;-69
2023/05/17 03:24:59;;;;;;;38.03;13.50;;;;;;;;;;2523625;23;20025;-69
2023/05/17 03:26:21;;;;;;;43.17;13.10;;;;;;;;;;2526336;23;20053;-69
2023/05/17 03:27:42;;;;;;;;;;;;;;;;;;2527209;23;20014;-69
2023/05/17 03:29:04;;;;;;;40.70;12.07;;;;;;;;;;2527499;23;19905;-69
2023/05/17 03:30:24;;;;;;;38.53;13.00;;;;;;;;;;2529658;23;20359;-69
2023/05/17 03:31:45;;;;;;;38.25;13.38;;;;;;;;;;2515047;23;20018;-69
2023/05/17 03:33:06;;;;;;;44.85;14.05;;;;;;;;;;2502874;23;20014;-69
2023/05/17 03:34:27;;;;;;;40.08;13.98;;;;;;;;;;2511112;23;20025;-70
2023/05/17 03:35:48;;;;;;;35.33;13.05;;;;;;;;;;2515434;23;20026;-70
2023/05/17 03:37:12;;;;;;;26.40;10.48;;;;;;;;;;2516702;23;20014;-70
2023/05/17 03:38:33;;;;;;;22.98;10.23;;;;;;;;;;2508075;23;20010;-70
2023/05/17 03:39:54;;;;;;;28.73;10.73;;;;;;;;;;2515343;23;20823;-70
2023/05/17 03:41:15;;;;;;;26.40;11.52;;;;;;;;;;2518505;23;20026;-70
2023/05/17 03:42:36;;;;;;;26.48;10.38;;;;;;;;;;2506488;23;20505;-70
2023/05/17 03:43:56;;;;;;;22.70;10.60;;;;;;;;;;2513595;23;20014;-70
2023/05/17 03:45:18;;;;;;;35.75;13.82;;;;;;;;;;2518578;23;20428;-70
2023/05/17 03:46:40;;;;;;;43.50;15.05;;;;;;;;;;2514632;23;20015;-70
2023/05/17 03:48:01;;;;;;;24.77;11.23;;;;;;;;;;2515937;23;20889;-70
2023/05/17 03:49:22;;;;;;;38.35;12.98;;;;;;;;;;2515302;23;20014;-70
2023/05/17 03:50:42;;;;;;;29.63;11.90;;;;;;;;;;2515431;23;20352;-70
2023/05/17 03:52:03;;;;;;;26.27;10.90;;;;;;;;;;2516939;23;20018;-70
2023/05/17 03:53:26;;;;;;;24.85;11.38;;;;;;;;;;2520025;23;20011;-70
2023/05/17 03:54:47;;;;;;;36.65;13.57;;;;;;;;;;2519284;23;20066;-70
2023/05/17 03:56:09;;;;;;;35.17;13.65;;;;;;;;;;2508610;23;20011;-70
2023/05/17 03:57:33;;;;;;;46.58;14.85;;;;;;;;;;2512172;23;20037;-70
2023/05/17 03:58:54;;;;;;;21.88;10.00;;;;;;;;;;2520250;23;20026;-71
2023/05/17 04:00:20;;;;;;;28.98;12.55;;;;;;;;;;2517497;23;20010;-69
2023/05/17 04:01:42;;;;;;;28.70;11.68;;;;;;;;;;2531078;23;20064;-70
2023/05/17 04:03:03;;;;;;;25.35;10.27;;;;;;;;;;2532474;23;20077;-70
2023/05/17 04:04:25;;;;;;;18.70;9.68;;;;;;;;;;2520419;23;20058;-70
2023/05/17 04:05:46;;;;;;;19.15;9.82;;;;;;;;;;2528367;23;20013;-70
2023/05/17 04:07:07;;;;;;;20.48;10.27;;;;;;;;;;2518789;23;20046;-70
2023/05/17 04:08:28;;;;;;;19.15;9.88;;;;;;;;;;2528819;23;20010;-70
2023/05/17 04:09:52;;;;;;;18.42;9.98;;;;;;;;;;2535144;23;20009;-70
2023/05/17 04:11:13;;;;;;;38.85;12.95;;;;;;;;;;2525005;23;20018;-70
2023/05/17 04:12:34;;;;;;;47.30;14.27;;;;;;;;;;2527861;23;20056;-70
2023/05/17 04:13:55;;;;;;;28.88;11.98;;;;;;;;;;2528358;23;20020;-70
2023/05/17 04:15:16;;;;;;;26.58;11.60;;;;;;;;;;2528314;23;20376;-71
2023/05/17 04:16:38;;;;;;;34.30;12.77;;;;;;;;;;2526422;23;20014;-70
2023/05/17 04:17:59;;;;;;;37.28;13.30;;;;;;;;;;2526324;23;20503;-70
2023/05/17 04:19:19;;;;;;;29.77;12.10;;;;;;;;;;2514395;23;20041;-70
2023/05/17 04:20:41;;;;;;;33.05;13.60;;;;;;;;;;2523293;23;20018;-70
2023/05/17 04:22:01;;;;;;;22.67;10.40;;;;;;;;;;2534057;23;20108;-70
2023/05/17 04:23:22;;;;;;;21.90;9.80;;;;;;;;;;2532655;23;20014;-70
2023/05/17 04:24:43;;;;;;;23.85;10.70;;;;;;;;;;2518460;23;20006;-70
2023/05/17 04:26:04;;;;;;;25.50;11.55;;;;;;;;;;2526720;23;20326;-70
2023/05/17 04:27:25;;;;;;;24.98;10.20;;;;;;;;;;2532696;23;20010;-70
2023/05/17 04:28:46;;;;;;;27.10;11.48;;;;;;;;;;2519188;23;20010;-70
2023/05/17 04:30:07;;;;;;;20.90;10.25;;;;;;;;;;2529072;23;20037;-70
2023/05/17 04:31:30;;;;;;;32.17;11.88;;;;;;;;;;2518261;23;20015;-71
2023/05/17 04:32:51;;;;;;;30.70;11.43;;;;;;;;;;2523580;23;20384;-70
2023/05/17 04:34:13;;;;;;;46.28;15.18;;;;;;;;;;2514589;23;20022;-70
2023/05/17 04:35:35;;;;;;;40.92;12.98;;;;;;;;;;2522779;23;20014;-70
2023/05/17 04:36:55;;;;;;;36.88;13.43;;;;;;;;;;2525725;23;20014;-71
2023/05/17 04:38:16;;;;;;;48.28;15.18;;;;;;;;;;2512642;23;20010;-70
2023/05/17 04:39:37;;;;;;;44.72;15.23;;;;;;;;;;2519335;23;20014;-69
2023/05/17 04:41:03;;;;;;;39.85;13.98;;;;;;;;;;2525535;23;20009;-70
2023/05/17 04:42:24;;;;;;;42.22;14.50;;;;;;;;;;2526538;23;20447;-70
2023/05/17 04:43:45;;;;;;;46.33;15.93;;;;;;;;;;2528067;23;20017;-69
2023/05/17 04:45:06;;;;;;;33.72;13.13;;;;;;;;;;2528563;23;20005;-69
2023/05/17 04:46:27;;;;;;;40.05;13.52;;;;;;;;;;2514404;23;20445;-70
2023/05/17 04:47:49;;;;;;;34.45;13.07;;;;;;;;;;2522484;23;20014;-69
2023/05/17 04:49:10;;;;;;;43.25;15.30;;;;;;;;;;2525867;23;20273;-69
2023/05/17 04:50:31;;;;;;;43.65;14.48;;;;;;;;;;2512925;23;20015;-73
2023/05/17 04:51:52;;;;;;;30.05;11.38;;;;;;;;;;2523888;23;20026;-70
2023/05/17 04:53:14;;;;;;;45.80;15.05;;;;;;;;;;2527690;23;20014;-70
2023/05/17 04:54:35;;;;;;;43.03;14.27;;;;;;;;;;2527590;23;20018;-70
2023/05/17 04:55:56;;;;;;;43.03;14.48;;;;;;;;;;2525580;23;20025;-69
2023/05/17 04:57:17;;;;;;;25.58;10.45;;;;;;;;;;2528210;23;20017;-70
2023/05/17 04:58:38;;;;;;;50.63;15.20;;;;;;;;;;2527815;23;20018;-70
2023/05/17 05:00:00;;;;;;;31.42;12.23;;;;;;;;;;2515140;23;20018;-70
2023/05/17 05:01:21;;;;;;;39.15;13.50;;;;;;;;;;2510288;23;20022;-70
2023/05/17 05:02:42;;;;;;;33.80;12.35;;;;;;;;;;2524219;23;20018;-70
2023/05/17 05:04:05;;;;;;;54.08;15.70;;;;;;;;;;2526280;23;20010;-69
2023/05/17 05:05:26;;;;;;;55.25;15.57;;;;;;;;;;2525351;23;20010;-70
2023/05/17 05:06:47;;;;;;;49.35;14.60;;;;;;;;;;2526509;23;20010;-69
2023/05/17 05:08:08;;;;;;;39.40;12.63;;;;;;;;;;2527775;23;20014;-70
2023/05/17 05:09:29;;;;;;;36.28;13.77;;;;;;;;;;2526163;23;20018;-70
2023/05/17 05:10:50;;;;;;;34.75;12.73;;;;;;;;;;2511419;23;20010;-70
2023/05/17 05:12:11;;;;;;;50.13;15.38;;;;;;;;;;2520157;23;20524;-69
2023/05/17 05:13:32;;;;;;;43.85;13.48;;;;;;;;;;2512739;23;20038;-71
2023/05/17 05:14:53;;;;;;;43.80;13.82;;;;;;;;;;2522616;23;20018;-70
2023/05/17 05:16:14;;;;;;;37.65;12.60;;;;;;;;;;2525247;23;20069;-71
2023/05/17 05:17:35;;;;;;;36.53;12.98;;;;;;;;;;2525431;23;20411;-70
2023/05/17 05:18:56;;;;;;;42.95;14.02;;;;;;;;;;2513365;23;20022;-70
2023/05/17 05:20:17;;;;;;;34.20;12.43;;;;;;;;;;2524270;23;20014;-70
2023/05/17 05:21:38;;;;;;;34.92;12.82;;;;;;;;;;2515365;23;20026;-70
2023/05/17 05:22:59;;;;;;;25.85;11.25;;;;;;;;;;2526885;23;20010;-70
2023/05/17 05:24:20;;;;;;;26.73;11.30;;;;;;;;;;2518093;23;20013;-71
2023/05/17 05:25:42;;;;;;;22.02;10.38;;;;;;;;;;2525881;23;20045;-70
2023/05/17 05:27:03;;;;;;;25.60;10.88;;;;;;;;;;2516199;23;20015;-70
2023/05/17 05:28:24;;;;;;;40.58;13.57;;;;;;;;;;2520509;23;20026;-70
2023/05/17 05:29:45;;;;;;;38.88;13.45;;;;;;;;;;2529330;23;20010;-70
2023/05/17 05:31:05;;;;;;;31.30;12.00;;;;;;;;;;2517606;23;20019;-70
2023/05/17 05:32:26;;;;;;;26.00;12.95;;;;;;;;;;2526242;23;20068;-70
2023/05/17 05:33:48;;;;;;;27.17;12.23;;;;;;;;;;2518112;23;20011;-70
2023/05/17 05:35:09;;;;;;;37.40;13.15;;;;;;;;;;2524993;23;20443;-70
2023/05/17 05:36:30;;;;;;;44.97;14.57;;;;;;;;;;2528360;23;20013;-69
2023/05/17 05:37:51;;;;;;;21.48;10.02;;;;;;;;;;2528720;23;20010;-69
2023/05/17 05:39:12;;;;;;;30.55;12.10;;;;;;;;;;2531214;23;20724;-70
2023/05/17 05:40:33;;;;;;;28.73;11.70;;;;;;;;;;2530502;23;20041;-70
2023/05/17 05:41:54;;;;;;;21.70;9.13;;;;;;;;;;2531420;23;20069;-70
2023/05/17 05:43:15;;;;;;;21.05;10.10;;;;;;;;;;2517506;23;20014;-72
2023/05/17 05:44:36;;;;;;;40.40;12.95;;;;;;;;;;2523455;23;20010;-72
2023/05/17 05:45:57;;;;;;;34.10;12.43;;;;;;;;;;2517063;23;20006;-70
2023/05/17 05:47:18;;;;;;;29.02;10.77;;;;;;;;;;2525455;23;20312;-69
2023/05/17 05:48:40;;;;;;;41.97;14.02;;;;;;;;;;2515009;23;20030;-69
2023/05/17 05:50:01;;;;;;;24.17;10.43;;;;;;;;;;2525705;23;20010;-70
2023/05/17 05:51:22;;;;;;;20.25;11.10;;;;;;;;;;2515947;23;20421;-70
2023/05/17 05:52:43;;;;;;;32.35;10.88;;;;;;;;;;2514365;23;20006;-70
2023/05/17 05:54:04;;;;;;;33.25;11.20;;;;;;;;;;2524852;23;20014;-70
2023/05/17 05:55:25;;;;;;;24.42;9.60;;;;;;;;;;2529693;23;20360;-71
2023/05/17 05:56:50;;;;;;;25.42;9.63;;;;;;;;;;2532429;23;20010;-70
2023/05/17 05:58:10;;;;;;;21.20;9.35;;;;;;;;;;2533857;23;20080;-70
2023/05/17 05:59:31;;;;;;;22.75;9.23;;;;;;;;;;2531937;23;20033;-70
2023/05/17 06:00:52;;;;;;;20.50;9.88;;;;;;;;;;2530144;23;20482;-72
2023/05/17 06:02:16;;;;;;;17.38;8.52;;;;;;;;;;2530989;23;20132;-71
2023/05/17 06:03:37;;;;;;;17.98;8.13;;;;;;;;;;2521400;23;20073;-70
2023/05/17 06:04:58;;;;;;;23.92;10.00;;;;;;;;;;2528578;23;20344;-72
2023/05/17 06:06:18;;;;;;;16.17;7.72;;;;;;;;;;2520041;23;20011;-73
2023/05/17 06:07:39;;;;;;;21.35;8.57;;;;;;;;;;2515347;23;20006;-71
2023/05/17 06:09:00;;;;;;;22.38;9.63;;;;;;;;;;2529833;23;20357;-71
2023/05/17 06:10:21;;;;;;;18.08;9.07;;;;;;;;;;2519517;23;20023;-72
2023/05/17 06:11:42;;;;;;;26.60;10.32;;;;;;;;;;2524715;23;20014;-71
2023/05/17 06:13:03;;;;;;;31.48;10.57;;;;;;;;;;2531845;23;20440;-72
2023/05/17 06:14:26;;;;;;;28.83;10.88;;;;;;;;;;2527198;23;20014;-72
2023/05/17 06:15:47;;;;;;;16.05;8.95;;;;;;;;;;2532029;23;20025;-73
2023/05/17 06:17:08;;;;;;;38.40;12.05;;;;;;;;;;2517945;23;20018;-72
2023/05/17 06:18:29;;;;;;;21.60;7.88;;;;;;;;;;2525693;23;20034;-72
2023/05/17 06:19:51;;;;;;;26.58;9.13;;;;;;;;;;2534123;23;20010;-72
2023/05/17 06:21:15;;;;;;;28.90;12.27;;;;;;;;;;2518848;23;20025;-72
2023/05/17 06:22:35;;;;;;;24.33;9.25;;;;;;;;;;2528990;23;20018;-72
2023/05/17 06:23:56;;;;;;;22.67;9.93;;;;;;;;;;2528454;23;20010;-72
2023/05/17 06:25:17;;;;;;;29.38;9.75;;;;;;;;;;2529115;23;20005;-72
2023/05/17 06:26:39;;;;;;;26.80;9.32;;;;;;;;;;2528409;23;20010;-72
2023/05/17 06:28:01;;;;;;;24.90;8.65;;;;;;;;;;2529797;23;20010;-71
2023/05/17 06:29:23;;;;;;;26.30;8.80;;;;;;;;;;2527691;23;20352;-72
2023/05/17 06:30:43;;;;;;;28.15;8.20;;;;;;;;;;2534549;23;20017;-72
2023/05/17 06:32:05;;;;;;;15.13;7.78;;;;;;;;;;2534345;23;20022;-72
2023/05/17 06:33:25;;;;;;;16.83;6.72;;;;;;;;;;2533646;23;20006;-72
2023/05/17 06:34:46;;;;;;;16.55;8.27;;;;;;;;;;2530325;23;20010;-72
2023/05/17 06:36:07;;;;;;;24.42;8.07;;;;;;;;;;2533450;23;20344;-71
2023/05/17 06:37:28;;;;;;;18.05;6.60;;;;;;;;;;2520852;23;20011;-71
2023/05/17 06:38:49;;;;;;;12.35;7.05;;;;;;;;;;2528826;23;20344;-71
2023/05/17 06:40:11;;;;;;;21.00;7.90;;;;;;;;;;2533427;23;20013;-71
2023/05/17 06:41:31;;;;;;;26.05;8.40;;;;;;;;;;2519667;23;20010;-71
2023/05/17 06:42:52;;;;;;;24.08;8.02;;;;;;;;;;2526236;23;20010;-72
2023/05/17 06:44:32;;;;;;;;;;;;;;;;;;;;;
2023/05/17 06:46:16;;;;;;;17.73;6.75;;;;;;;;;;2534607;23;20010;-74
2023/05/17 06:47:37;;;;;;;17.20;6.85;;;;;;;;;;2533947;23;20006;-71
2023/05/17 06:48:58;;;;;;;16.40;7.10;;;;;;;;;;2521669;23;20345;-73
2023/05/17 06:50:29;;;;;;;21.10;7.60;;;;;;;;;;2516386;23;20038;-73
2023/05/17 06:51:50;;;;;;;20.33;6.70;;;;;;;;;;2516134;23;20444;-73
2023/05/17 06:53:13;;;;;;;22.15;7.35;;;;;;;;;;2524125;23;20006;-72
2023/05/17 06:54:51;;;;;;;16.75;6.13;;;;;;;;;;2523061;23;20014;-72
2023/05/17 06:56:21;;;;;;;13.38;6.28;;;;;;;;;;2529981;23;20037;-73
2023/05/17 06:57:41;;;;;;;22.65;7.25;;;;;;;;;;2532926;23;20018;-73
2023/05/17 06:59:03;;;;;;;16.30;7.15;;;;;;;;;;2533143;23;20026;-73
2023/05/17 07:02:42;;;;;;;16.10;6.63;;;;;;;;;;2534179;23;20380;-73
2023/05/17 07:04:03;;;;;;;27.75;8.05;;;;;;;;;;2517365;23;20018;-73
2023/05/17 07:05:24;;;;;;;17.35;6.40;;;;;;;;;;2528452;23;20017;-73
2023/05/17 07:06:45;;;;;;;11.20;6.00;;;;;;;;;;2532221;23;20017;-73
2023/05/17 07:08:06;;;;;;;16.35;6.72;;;;;;;;;;2529275;23;20014;-73
2023/05/17 07:09:27;;;;;;;23.83;6.20;;;;;;;;;;2530006;23;20013;-72
2023/05/17 07:10:50;;;;;;;9.45;5.75;;;;;;;;;;2519274;23;20006;-73
2023/05/17 07:12:10;;;;;;;17.10;6.25;;;;;;;;;;2528950;23;20018;-73
2023/05/17 07:13:31;;;;;;;31.52;9.27;;;;;;;;;;2531913;23;20014;-73
2023/05/17 07:14:58;;;;;;;16.02;5.78;;;;;;;;;;2531123;23;20010;-73
2023/05/17 07:16:19;;;;;;;17.48;6.57;;;;;;;;;;2521341;23;20042;-73
2023/05/17 07:17:40;;;;;;;16.77;6.38;;;;;;;;;;2525672;23;20078;-73
2023/05/17 07:19:04;;;;;;;27.67;7.30;;;;;;;;;;2531910;23;20014;-73
2023/05/17 07:21:07;;;;;;;;;;;;;;;;;;;;;
2023/05/17 07:26:25;;;;;;;18.90;6.07;;;;;;;;;;2530308;23;20005;-72
2023/05/17 07:27:45;;;;;;;22.35;7.15;;;;;;;;;;2528566;23;20010;-72
2023/05/17 07:29:06;;;;;;;22.58;6.80;;;;;;;;;;2528634;23;20043;-72
2023/05/17 07:30:27;;;;;;;18.33;6.03;;;;;;;;;;2529995;23;20277;-72
2023/05/17 07:31:48;;;;;;;17.25;5.88;;;;;;;;;;2518917;23;20014;-72
2023/05/17 07:33:09;;;;;;;22.98;7.53;;;;;;;;;;2527262;23;20062;-73
2023/05/17 07:34:33;;;;;;;26.83;7.60;;;;;;;;;;2533634;23;20010;-73
2023/05/17 07:35:53;;;;;;;18.25;6.05;;;;;;;;;;2534640;23;20292;-73
2023/05/17 07:37:26;;;;;;;14.45;5.28;;;;;;;;;;2520389;23;20682;-74
2023/05/17 07:39:09;;;;;;;23.35;6.80;;;;;;;;;;2529753;23;20025;-71
2023/05/17 07:40:36;;;;;;;23.10;6.53;;;;;;;;;;2533009;23;20014;-70
2023/05/17 07:41:58;;;;;;;24.48;7.97;;;;;;;;;;2493257;23;20377;-73
2023/05/17 07:43:20;;;;;;;24.85;7.07;;;;;;;;;;2510722;23;20023;-73
2023/05/17 07:44:47;;;;;;;17.00;6.07;;;;;;;;;;2528609;23;20444;-75
2023/05/17 07:46:21;;;;;;;18.63;5.70;;;;;;;;;;2520293;23;20018;-73
2023/05/17 07:47:45;;;;;;;34.05;8.38;;;;;;;;;;2519202;23;20010;-72
2023/05/17 07:49:14;;;;;;;16.30;5.57;;;;;;;;;;2517909;23;20010;-71
2023/05/17 07:50:35;;;;;;;11.85;4.72;;;;;;;;;;2529310;23;20006;-71
2023/05/17 07:52:01;;;;;;;22.05;6.30;;;;;;;;;;2517508;23;20014;-71
2023/05/17 07:54:01;;;;;;;30.98;8.85;;;;;;;;;;2514172;23;20014;-72
2023/05/17 07:55:28;;;;;;;37.13;9.05;;;;;;;;;;2491352;23;20011;-72
2023/05/17 07:56:54;;;;;;;21.55;5.47;;;;;;;;;;2516010;23;20071;-71
2023/05/17 07:58:27;;;;;;;24.65;7.47;;;;;;;;;;2528881;23;20022;-72
2023/05/17 07:59:51;;;;;;;20.10;6.45;;;;;;;;;;2529307;23;20022;-71
2023/05/17 08:01:15;;;;;;;26.40;6.60;;;;;;;;;;2532094;23;20021;-72
2023/05/17 08:02:56;;;;;;;22.58;6.53;;;;;;;;;;2517552;23;20014;-70
2023/05/17 08:04:26;;;;;;;19.70;6.28;;;;;;;;;;2517247;23;20053;-72
2023/05/17 08:05:47;;;;;;;21.15;6.75;;;;;;;;;;2527562;23;20006;-73
2023/05/17 08:07:17;;;;;;;20.98;7.07;;;;;;;;;;2518185;23;20501;-74
2023/05/17 08:08:38;;;;;;;16.63;5.68;;;;;;;;;;2529450;23;20006;-71
2023/05/17 08:09:59;;;;;;;16.95;5.50;;;;;;;;;;2532243;23;20006;-71
2023/05/17 08:13:52;;;;;;;22.20;6.15;;;;;;;;;;2531892;23;20146;-73